Hovedside
METAR-TAF:

METAR-TAF

Lufthavner :

Växjö lufthavn

Växjö, Sverige

breddegrad: 56-51N, lengdegrad: 014-50E, høyde over havet: 199 m

Gjeldene værobservasjon

Denne rapporten ble laget for 25 minutter siden, klokken 03:50 UTC
Vind 10 kt fra Nordvest
Temperatur 1°C
Luftfuktighet 86%
Trykk 1003 hPa
Sikt 10 km eller mer
ingen skyer under 1500 m og ingen bygeskyer

METAR: ESMX 240350Z 31010KT CAVOK 01/M01 Q1003

Tid: 06:15 (04:15 UTC)

Varsel

Denne rapporten ble laget for 45 minutter siden, klokken 03:30 UTC
Varsel gyldig fra 24. klokken 04 UTC til 24. klokken 12 UTC
Vind 10 kt fra Nordvest
Sikt 10 km eller mer
ingen skyer under 1500 m og ingen bygeskyer

TAF: ESMX 240330Z 2404/2412 31010KT CAVOK

Værobservasjoner og værvarsel for over 4000 flyplasser (METAR- og TAF-rapporter).

Tilgjengelige stasjoner er representert av de røde og gule prikkene på kartet.

Hold musepekeren over prikken for å se navnet på stasjonen.

Klikk så for å se værobservasjoner og -varsler.

For å forandre kartet kan du klikke på den grønne knappen med svart kryss for å zoome inn, på den grønne knappen med strek for å zoome ut, eller på de grønne pilene for å se tilstøtende kart.


METAR-TAF: